Time;durP1;ratioP1;P1;durP2;ratioP2;P2;SDS_P1;SDS_P2;PMS_P1;PMS_P2;Temp;Humidity;BMP_temperature;BMP_pressure;BME280_temperature;BME280_humidity;BME280_pressure;Samples;Min_cycle;Max_cycle;Signal;HPM_P1;HPM_P2
2024/03/19 00:00:20;;;;;;;0.50;0.50;;;;;;;7.81;100.00;96982.94;29395;212;63009;-54
2024/03/19 00:00:54;;;;;;;0.50;0.50;;;;;;;7.80;100.00;96975.91;29395;203;63005;-67
2024/03/19 00:01:25;;;;;;;0.50;0.50;;;;;;;7.80;100.00;96981.31;29394;281;64009;-67
2024/03/19 00:01:57;;;;;;;0.50;0.50;;;;;;;7.81;100.00;96982.13;29395;202;63004;-67
2024/03/19 00:02:29;;;;;;;0.50;0.50;;;;;;;7.80;100.00;96980.50;29395;243;63009;-68
2024/03/19 00:03:00;;;;;;;0.50;0.50;;;;;;;7.80;100.00;96980.50;29394;258;63998;-56
2024/03/19 00:03:31;;;;;;;0.50;0.50;;;;;;;7.79;100.00;96978.91;29394;245;64008;-55
2024/03/19 00:04:07;;;;;;;0.50;0.50;;;;;;;7.79;100.00;96982.41;29395;207;63004;-56
2024/03/19 00:04:38;;;;;;;0.50;0.50;;;;;;;7.79;100.00;96985.09;29395;254;63009;-66
2024/03/19 00:05:10;;;;;;;0.50;0.50;;;;;;;7.79;100.00;96979.72;29395;205;63005;-55
2024/03/19 00:05:42;;;;;;;0.50;0.50;;;;;;;7.79;100.00;96978.91;29395;229;63009;-66
2024/03/19 00:06:13;;;;;;;0.50;0.50;;;;;;;7.79;100.00;96982.41;29395;237;63015;-55
2024/03/19 00:06:44;;;;;;;0.50;0.50;;;;;;;7.80;100.00;96981.31;29395;269;63009;-55
2024/03/19 00:07:16;;;;;;;0.50;0.50;;;;;;;7.80;100.00;96981.31;29395;237;63005;-67
2024/03/19 00:07:48;;;;;;;0.50;0.50;;;;;;;7.81;100.00;96985.66;29395;216;63009;-68
2024/03/19 00:08:19;;;;;;;0.50;0.50;;;;;;;7.81;100.00;96977.53;29394;443;64009;-55
2024/03/19 00:08:53;;;;;;;0.50;0.50;;;;;;;7.81;100.00;96988.34;29395;198;63023;-56
2024/03/19 00:09:24;;;;;;;0.50;0.50;;;;;;;7.81;100.00;96982.94;29395;208;63004;-55
2024/03/19 00:09:56;;;;;;;0.50;0.50;;;;;;;7.81;100.00;96988.34;29395;224;63009;-67
2024/03/19 00:10:27;;;;;;;0.50;0.50;;;;;;;7.82;100.00;96983.75;29395;207;63004;-55
2024/03/19 00:10:58;;;;;;;0.50;0.50;;;;;;;7.82;100.00;96984.56;29395;240;63017;-66
2024/03/19 00:11:30;;;;;;;0.50;0.50;;;;;;;7.82;100.00;96984.56;29395;225;63008;-55
2024/03/19 00:12:01;;;;;;;0.50;0.50;;;;;;;7.81;100.00;96982.94;29395;196;63009;-55
2024/03/19 00:12:32;;;;;;;0.50;0.50;;;;;;;7.81;100.00;96991.06;29395;197;63010;-55
2024/03/19 00:13:04;;;;;;;0.50;0.50;;;;;;;7.81;100.00;96985.66;29395;386;63005;-56
2024/03/19 00:13:35;;;;;;;0.50;0.50;;;;;;;7.81;100.00;96982.94;29394;228;64009;-67
2024/03/19 00:14:06;;;;;;;0.50;0.50;;;;;;;7.82;100.00;96984.56;29395;240;63009;-55
2024/03/19 00:14:38;;;;;;;0.50;0.50;;;;;;;7.83;100.00;96986.19;29395;222;63005;-55
2024/03/19 00:15:13;;;;;;;0.50;0.50;;;;;;;7.82;100.00;96984.56;29395;314;63009;-67
2024/03/19 00:15:50;;;;;;;0.50;0.50;;;;;;;7.82;100.00;96981.88;29395;218;63000;-67
2024/03/19 00:16:25;;;;;;;0.50;0.50;;;;;;;7.82;100.00;96981.06;29395;235;63009;-67
2024/03/19 00:17:00;;;;;;;0.50;0.50;;;;;;;7.82;100.00;96989.97;29395;213;63009;-67
2024/03/19 00:17:31;;;;;;;0.50;0.50;;;;;;;7.82;100.00;96981.88;29395;203;63009;-67
2024/03/19 00:18:05;;;;;;;0.50;0.50;;;;;;;7.82;100.00;96979.16;29395;201;63015;-55
2024/03/19 00:18:37;;;;;;;0.50;0.50;;;;;;;7.82;100.00;96984.56;29394;225;64014;-55
2024/03/19 00:19:08;;;;;;;0.50;0.50;;;;;;;7.83;100.00;96986.19;29395;265;63005;-55
2024/03/19 00:19:39;;;;;;;0.50;0.50;;;;;;;7.84;100.00;96985.09;29395;271;63009;-66
2024/03/19 00:20:11;;;;;;;0.50;0.50;;;;;;;7.83;100.00;96979.97;29395;256;63010;-55
2024/03/19 00:20:43;;;;;;;0.50;0.50;;;;;;;7.84;100.00;96982.41;29395;352;63009;-55
2024/03/19 00:21:14;;;;;;;0.50;0.50;;;;;;;7.83;100.00;96986.19;29395;218;63005;-55
2024/03/19 00:21:46;;;;;;;0.50;0.50;;;;;;;7.84;100.00;96981.59;29395;222;63009;-54
2024/03/19 00:22:17;;;;;;;0.50;0.50;;;;;;;7.84;100.00;96984.28;29395;243;63005;-55
2024/03/19 00:22:49;;;;;;;0.50;0.50;;;;;;;7.82;100.00;96984.56;29395;343;63009;-66
2024/03/19 00:23:20;;;;;;;0.50;0.50;;;;;;;7.81;100.00;96988.34;29395;254;63004;-68
2024/03/19 00:23:52;;;;;;;0.50;0.50;;;;;;;7.81;100.00;96987.53;29394;243;64013;-67
2024/03/19 00:24:24;;;;;;;0.50;0.50;;;;;;;7.81;100.00;96988.34;29395;339;63010;-68
2024/03/19 00:24:56;;;;;;;0.50;0.50;;;;;;;7.81;100.00;96987.53;29395;242;63012;-67
2024/03/19 00:25:27;;;;;;;0.50;0.50;;;;;;;7.81;100.00;96985.66;29395;328;63004;-67
2024/03/19 00:25:58;;;;;;;0.50;0.50;;;;;;;7.81;100.00;96988.34;29395;215;63008;-55
2024/03/19 00:26:30;;;;;;;0.50;0.50;;;;;;;7.80;100.00;96981.31;29395;254;63005;-68
2024/03/19 00:27:04;;;;;;;0.50;0.50;;;;;;;7.81;100.00;96982.94;29395;215;63005;-66
2024/03/19 00:27:36;;;;;;;0.50;0.50;;;;;;;7.83;100.00;96991.59;29395;263;63005;-67
2024/03/19 00:28:07;;;;;;;0.50;0.50;;;;;;;7.83;100.00;96980.78;29395;222;63009;-55
2024/03/19 00:28:39;;;;;;;0.50;0.50;;;;;;;7.81;100.00;96982.13;29395;327;63005;-55
2024/03/19 00:29:10;;;;;;;0.50;0.50;;;;;;;7.79;100.00;96987.00;29394;255;64013;-67
2024/03/19 00:29:41;;;;;;;0.50;0.50;;;;;;;7.77;100.00;96987.28;29395;248;63005;-55
2024/03/19 00:30:13;;;;;;;0.50;0.50;;;;;;;7.76;100.00;96991.06;29395;229;63009;-55
2024/03/19 00:30:45;;;;;;;0.50;0.50;;;;;;;7.75;100.00;96981.31;29395;204;63004;-68
2024/03/19 00:31:16;;;;;;;0.50;0.50;;;;;;;7.77;100.00;96981.88;29395;209;63009;-68
2024/03/19 00:31:47;;;;;;;0.50;0.50;;;;;;;7.77;100.00;96989.97;29395;248;63004;-54
2024/03/19 00:32:20;;;;;;;0.50;0.50;;;;;;;7.77;100.00;96984.56;29395;224;63009;-66
2024/03/19 00:32:51;;;;;;;0.50;0.50;;;;;;;7.77;100.00;96992.66;29395;275;63011;-66
2024/03/19 00:33:22;;;;;;;0.50;0.50;;;;;;;7.77;100.00;96983.75;29395;274;63008;-69
2024/03/19 00:33:54;;;;;;;0.50;0.50;;;;;;;7.77;100.00;96984.56;29395;197;63005;-55
2024/03/19 00:34:29;;;;;;;0.50;0.50;;;;;;;7.75;100.00;96984.03;29394;533;64023;-68
2024/03/19 00:35:00;;;;;;;0.50;0.50;;;;;;;7.73;100.00;96991.59;29395;359;63005;-66
2024/03/19 00:35:32;;;;;;;0.50;0.50;;;;;;;7.71;100.00;96989.16;29395;197;63009;-55
2024/03/19 00:36:09;;;;;;;0.50;0.50;;;;;;;7.70;100.00;96989.44;29395;216;63005;-68
2024/03/19 00:36:41;;;;;;;0.50;0.50;;;;;;;7.69;100.00;96995.91;29395;258;63009;-55
2024/03/19 00:37:12;;;;;;;0.50;0.50;;;;;;;7.66;100.00;96991.88;29395;206;63005;-54
2024/03/19 00:37:49;;;;;;;0.50;0.50;;;;;;;7.67;100.00;96998.06;29395;239;63009;-55
2024/03/19 00:38:23;;;;;;;0.50;0.50;;;;;;;7.67;100.00;96987.28;29395;202;63004;-68
2024/03/19 00:38:54;;;;;;;0.50;0.50;;;;;;;7.67;100.00;96992.69;29395;202;63005;-68
2024/03/19 00:39:28;;;;;;;0.50;0.50;;;;;;;7.68;100.00;96994.28;29394;243;64009;-55
2024/03/19 00:39:59;;;;;;;0.50;0.50;;;;;;;7.69;100.00;96995.91;29395;212;63009;-55
2024/03/19 00:40:31;;;;;;;0.50;0.50;;;;;;;7.69;100.00;96990.50;29395;199;63004;-55
2024/03/19 00:41:03;;;;;;;0.50;0.50;;;;;;;7.69;100.00;96995.91;29395;256;63008;-67
2024/03/19 00:41:34;;;;;;;0.50;0.50;;;;;;;7.68;100.00;96991.59;29395;211;63005;-67
2024/03/19 00:42:06;;;;;;;0.50;0.50;;;;;;;7.69;100.00;96998.63;29395;218;63009;-55
2024/03/19 00:42:43;;;;;;;0.50;0.50;;;;;;;7.68;100.00;96997.00;29395;383;63014;-66
2024/03/19 00:43:15;;;;;;;0.50;0.50;;;;;;;7.69;100.00;96995.91;29395;251;63009;-67
2024/03/19 00:43:46;;;;;;;0.50;0.50;;;;;;;7.66;100.00;96993.75;29395;218;63005;-67
2024/03/19 00:44:18;;;;;;;0.50;0.50;;;;;;;7.65;100.00;96997.53;29395;403;63009;-66
2024/03/19 00:44:49;;;;;;;0.50;0.50;;;;;;;7.65;100.00;96994.84;29394;278;64009;-55
2024/03/19 00:45:21;;;;;;;0.50;0.50;;;;;;;7.63;100.00;96991.59;29395;219;63009;-69
2024/03/19 00:45:52;;;;;;;0.50;0.50;;;;;;;7.60;100.00;96992.16;29395;221;63004;-55
2024/03/19 00:46:24;;;;;;;0.50;0.50;;;;;;;7.59;100.00;96995.94;29395;199;63009;-67
2024/03/19 00:46:55;;;;;;;0.50;0.50;;;;;;;7.58;100.00;96994.31;29395;198;63004;-68
2024/03/19 00:47:26;;;;;;;0.50;0.50;;;;;;;7.58;100.00;96991.63;29395;251;63009;-66
2024/03/19 00:47:58;;;;;;;0.50;0.50;;;;;;;7.59;100.00;97001.34;29395;224;63004;-68
2024/03/19 00:48:32;;;;;;;0.50;0.50;;;;;;;7.59;100.00;96991.34;29395;257;63008;-55
2024/03/19 00:49:03;;;;;;;0.50;0.50;;;;;;;7.60;100.00;96986.75;29395;227;63005;-55
2024/03/19 00:49:35;;;;;;;0.50;0.50;;;;;;;7.61;100.00;96988.38;29395;215;63009;-55
2024/03/19 00:50:08;;;;;;;0.50;0.50;;;;;;;7.63;100.00;96986.19;29394;212;64009;-66
2024/03/19 00:50:39;;;;;;;0.50;0.50;;;;;;;7.64;100.00;96985.13;29395;252;63009;-55
2024/03/19 00:51:10;;;;;;;0.50;0.50;;;;;;;7.65;100.00;96989.44;29395;323;63005;-55
2024/03/19 00:51:42;;;;;;;0.50;0.50;;;;;;;7.67;100.00;96981.88;29395;225;63009;-66
2024/03/19 00:52:13;;;;;;;0.50;0.50;;;;;;;7.68;100.00;96984.31;29395;308;63016;-55
2024/03/19 00:52:44;;;;;;;0.50;0.50;;;;;;;7.69;100.00;96979.72;29395;217;63009;-68
2024/03/19 00:53:16;;;;;;;0.50;0.50;;;;;;;7.69;100.00;96980.53;29395;248;63004;-68
2024/03/19 00:53:47;;;;;;;0.50;0.50;;;;;;;7.71;100.00;96977.53;29395;219;63009;-55
2024/03/19 00:54:19;;;;;;;0.50;0.50;;;;;;;7.72;100.00;96984.56;29395;202;63004;-55
2024/03/19 00:54:51;;;;;;;0.50;0.50;;;;;;;7.73;100.00;96986.19;29395;198;63009;-55
2024/03/19 00:55:22;;;;;;;0.50;0.50;;;;;;;7.73;100.00;96972.69;29394;312;64020;-68
2024/03/19 00:55:53;;;;;;;0.50;0.50;;;;;;;7.74;100.00;96982.41;29395;277;63008;-67
2024/03/19 00:56:25;;;;;;;0.50;0.50;;;;;;;7.74;100.00;96977.00;29395;203;63005;-68
2024/03/19 00:56:57;;;;;;;0.50;0.50;;;;;;;7.74;100.00;96977.81;29395;223;63009;-55
2024/03/19 00:57:28;;;;;;;0.50;0.50;;;;;;;7.74;100.00;96983.22;29395;234;63005;-55
2024/03/19 00:58:00;;;;;;;0.60;0.60;;;;;;;7.75;100.00;96978.62;29395;387;63009;-66
2024/03/19 00:58:32;;;;;;;0.50;0.50;;;;;;;7.76;100.00;96984.84;29395;255;63005;-55
2024/03/19 00:59:03;;;;;;;0.50;0.50;;;;;;;7.75;100.00;96978.62;29395;249;63005;-68
2024/03/19 00:59:34;;;;;;;0.50;0.50;;;;;;;7.75;100.00;96975.94;29395;210;63007;-68
2024/03/19 01:00:10;;;;;;;0.50;0.50;;;;;;;7.76;100.00;96976.75;29395;257;63005;-67
2024/03/19 01:00:42;;;;;;;0.50;0.50;;;;;;;7.77;100.00;96981.88;29394;278;64009;-55
2024/03/19 01:01:13;;;;;;;0.50;0.50;;;;;;;7.77;100.00;96979.16;29395;256;63009;-67
2024/03/19 01:01:45;;;;;;;0.50;0.50;;;;;;;7.78;100.00;96975.37;29395;228;63004;-66
2024/03/19 01:02:19;;;;;;;0.60;0.60;;;;;;;7.77;100.00;96976.47;29395;412;63009;-69
2024/03/19 01:02:51;;;;;;;0.50;0.50;;;;;;;7.79;100.00;96978.91;29395;208;63004;-67
2024/03/19 01:03:22;;;;;;;0.50;0.50;;;;;;;7.79;100.00;96974.31;29395;197;63008;-68
2024/03/19 01:03:54;;;;;;;0.50;0.50;;;;;;;7.79;100.00;96979.72;29395;263;63005;-67
2024/03/19 01:04:25;;;;;;;0.50;0.50;;;;;;;7.80;100.00;96975.91;29395;202;63009;-55
2024/03/19 01:04:58;;;;;;;0.50;0.50;;;;;;;7.79;100.00;96979.72;29395;197;63005;-67
2024/03/19 01:05:30;;;;;;;0.50;0.50;;;;;;;7.78;100.00;96975.37;29395;219;63009;-55
2024/03/19 01:06:01;;;;;;;0.50;0.50;;;;;;;7.79;100.00;96974.31;29394;206;64009;-67
2024/03/19 01:06:32;;;;;;;0.50;0.50;;;;;;;7.79;100.00;96971.59;29395;206;63009;-55
2024/03/19 01:07:06;;;;;;;0.50;0.50;;;;;;;7.79;100.00;96968.91;29395;219;63005;-67
2024/03/19 01:07:39;;;;;;;0.50;0.50;;;;;;;7.79;100.00;96968.91;29395;202;63009;-67
2024/03/19 01:08:10;;;;;;;0.50;0.50;;;;;;;7.79;100.00;96979.72;29395;222;63004;-68
2024/03/19 01:08:42;;;;;;;0.50;0.50;;;;;;;7.78;100.00;96975.37;29395;277;63009;-66
2024/03/19 01:09:14;;;;;;;0.50;0.50;;;;;;;7.78;100.00;96978.09;29395;313;63004;-69
2024/03/19 01:09:46;;;;;;;0.50;0.50;;;;;;;7.78;100.00;96971.88;29395;406;63009;-55
2024/03/19 01:10:18;;;;;;;0.50;0.50;;;;;;;7.79;100.00;96976.19;29395;260;63004;-66
2024/03/19 01:10:50;;;;;;;0.50;0.50;;;;;;;7.78;100.00;96978.09;29395;225;63008;-55
2024/03/19 01:11:21;;;;;;;0.50;0.50;;;;;;;7.77;100.00;96976.47;29394;242;64008;-55
2024/03/19 01:11:52;;;;;;;0.50;0.50;;;;;;;7.78;100.00;96974.56;29395;307;63009;-65
2024/03/19 01:12:24;;;;;;;0.50;0.50;;;;;;;7.74;100.00;96977.00;29395;215;63005;-66
2024/03/19 01:12:55;;;;;;;0.50;0.50;;;;;;;7.78;100.00;96977.28;29395;468;63009;-67
2024/03/19 01:13:26;;;;;;;0.50;0.50;;;;;;;7.79;100.00;96978.91;29395;210;63009;-68
2024/03/19 01:14:00;;;;;;;0.50;0.50;;;;;;;7.80;100.00;96970.53;29395;203;63009;-55
2024/03/19 01:14:32;;;;;;;0.50;0.50;;;;;;;7.79;100.00;96973.50;29395;202;63005;-55
2024/03/19 01:15:06;;;;;;;0.50;0.50;;;;;;;7.80;100.00;96972.41;29395;318;63009;-55
2024/03/19 01:15:37;;;;;;;0.50;0.50;;;;;;;7.80;100.00;96965.13;29395;220;63004;-68
2024/03/19 01:16:08;;;;;;;0.50;0.50;;;;;;;7.80;100.00;96970.53;29395;231;63012;-56
2024/03/19 01:16:40;;;;;;;0.50;0.50;;;;;;;7.80;100.00;96965.13;29394;198;64009;-67
2024/03/19 01:17:12;;;;;;;0.50;0.50;;;;;;;7.80;100.00;96975.91;29395;208;63009;-67
2024/03/19 01:17:43;;;;;;;0.50;0.50;;;;;;;7.79;100.00;96971.59;29395;221;63004;-67
2024/03/19 01:18:15;;;;;;;0.50;0.50;;;;;;;7.80;100.00;96965.13;29395;211;63009;-56
2024/03/19 01:18:46;;;;;;;0.50;0.50;;;;;;;7.80;100.00;96964.31;29395;270;63005;-67
2024/03/19 01:19:18;;;;;;;0.50;0.50;;;;;;;7.81;100.00;96968.63;29395;241;63009;-68
2024/03/19 01:19:52;;;;;;;0.50;0.50;;;;;;;7.81;100.00;96971.34;29395;259;63005;-68
2024/03/19 01:20:23;;;;;;;0.50;0.50;;;;;;;7.81;100.00;96965.94;29395;197;63009;-55
2024/03/19 01:20:55;;;;;;;0.50;0.50;;;;;;;7.80;100.00;96965.13;29395;349;63005;-68
2024/03/19 01:21:26;;;;;;;0.50;0.50;;;;;;;7.80;100.00;96962.41;29395;217;63009;-67
2024/03/19 01:21:57;;;;;;;0.50;0.50;;;;;;;7.81;100.00;96964.03;29394;202;64009;-66
2024/03/19 01:22:29;;;;;;;0.50;0.50;;;;;;;7.81;100.00;96965.94;29394;243;64013;-55
2024/03/19 01:23:00;;;;;;;0.47;0.47;;;;;;;7.81;100.00;96966.75;29395;246;63004;-66
2024/03/19 01:23:31;;;;;;;0.50;0.50;;;;;;;7.82;100.00;96965.66;29394;268;64013;-54
2024/03/19 01:24:03;;;;;;;0.50;0.50;;;;;;;7.81;100.00;96961.34;29395;246;63004;-55
2024/03/19 01:24:38;;;;;;;0.50;0.50;;;;;;;7.82;100.00;96960.25;29395;260;63009;-55
2024/03/19 01:25:10;;;;;;;0.50;0.50;;;;;;;7.82;100.00;96960.25;29395;256;63004;-55
2024/03/19 01:25:41;;;;;;;0.50;0.50;;;;;;;7.83;100.00;96964.56;29395;270;63008;-55
2024/03/19 01:26:12;;;;;;;0.50;0.50;;;;;;;7.83;100.00;96961.88;29395;220;63005;-55
2024/03/19 01:26:44;;;;;;;0.50;0.50;;;;;;;7.84;100.00;96958.09;29395;265;63009;-67
2024/03/19 01:27:16;;;;;;;0.50;0.50;;;;;;;7.83;100.00;96956.47;29395;209;63005;-55
2024/03/19 01:27:49;;;;;;;0.60;0.60;;;;;;;7.84;100.00;96952.69;29395;197;63015;-68
2024/03/19 01:28:21;;;;;;;0.50;0.50;;;;;;;7.86;100.00;96957.81;29395;258;63012;-55
2024/03/19 01:28:52;;;;;;;0.50;0.50;;;;;;;7.86;100.00;96955.94;29394;388;64013;-68
2024/03/19 01:29:25;;;;;;;0.50;0.50;;;;;;;7.88;100.00;96959.16;29395;233;63005;-55
2024/03/19 01:29:57;;;;;;;0.50;0.50;;;;;;;7.90;100.00;96958.91;29395;278;63009;-67
2024/03/19 01:30:29;;;;;;;0.50;0.50;;;;;;;7.90;100.00;96958.91;29395;234;63004;-54
2024/03/19 01:31:04;;;;;;;0.50;0.50;;;;;;;7.91;100.00;96955.09;29395;228;63009;-55
2024/03/19 01:31:35;;;;;;;0.50;0.50;;;;;;;7.92;100.00;96954.84;29396;228;63004;-68
2024/03/19 01:32:07;;;;;;;0.50;0.50;;;;;;;7.92;100.00;96952.13;29395;259;63009;-55
2024/03/19 01:32:39;;;;;;;0.50;0.50;;;;;;;7.92;100.00;96962.94;29394;240;64008;-55
2024/03/19 01:33:10;;;;;;;0.50;0.50;;;;;;;7.90;100.00;96954.28;29395;222;63008;-55
2024/03/19 01:33:45;;;;;;;0.50;0.50;;;;;;;7.90;100.00;96956.19;29395;263;63005;-55
2024/03/19 01:34:16;;;;;;;0.50;0.50;;;;;;;7.90;100.00;96962.41;29395;199;63009;-55
2024/03/19 01:34:48;;;;;;;0.50;0.50;;;;;;;7.89;100.00;96952.69;29395;253;63005;-67
2024/03/19 01:35:20;;;;;;;0.50;0.50;;;;;;;7.90;100.00;96962.41;29395;202;63009;-55
2024/03/19 01:35:52;;;;;;;0.50;0.50;;;;;;;7.89;100.00;96966.19;29395;262;63007;-55
2024/03/19 01:36:24;;;;;;;0.50;0.50;;;;;;;7.88;100.00;96958.34;29395;413;63009;-55
2024/03/19 01:36:55;;;;;;;0.50;0.50;;;;;;;7.86;100.00;96961.31;29395;203;63005;-66
2024/03/19 01:37:27;;;;;;;0.50;0.50;;;;;;;7.84;100.00;96960.78;29395;241;63009;-55
2024/03/19 01:37:59;;;;;;;0.50;0.50;;;;;;;7.82;100.00;96954.84;29394;202;64009;-68
2024/03/19 01:38:31;;;;;;;0.50;0.50;;;;;;;7.81;100.00;96955.94;29395;272;63009;-67
2024/03/19 01:39:02;;;;;;;0.50;0.50;;;;;;;7.77;100.00;96954.03;29395;234;63004;-68
2024/03/19 01:39:34;;;;;;;0.50;0.50;;;;;;;7.72;100.00;96952.16;29395;204;63009;-68
2024/03/19 01:40:07;;;;;;;0.50;0.50;;;;;;;7.71;100.00;96956.75;29395;199;63004;-67
2024/03/19 01:40:38;;;;;;;0.50;0.50;;;;;;;7.70;100.00;96955.13;29395;210;63016;-55
2024/03/19 01:41:16;;;;;;;0.50;0.50;;;;;;;7.69;100.00;96953.50;29395;221;63005;-55
2024/03/19 01:41:48;;;;;;;0.50;0.50;;;;;;;7.68;100.00;96956.47;29395;262;63009;-67
2024/03/19 01:42:19;;;;;;;0.50;0.50;;;;;;;7.68;100.00;96953.78;29395;435;63008;-55
2024/03/19 01:42:50;;;;;;;0.50;0.50;;;;;;;7.67;100.00;96949.47;29395;409;63009;-55
2024/03/19 01:43:22;;;;;;;0.50;0.50;;;;;;;7.66;100.00;96954.06;29394;317;64009;-68
2024/03/19 01:43:53;;;;;;;0.50;0.50;;;;;;;7.66;100.00;96947.84;29395;234;63020;-55
2024/03/19 01:44:25;;;;;;;0.50;0.50;;;;;;;7.64;100.00;96950.81;29395;270;63005;-55
2024/03/19 01:45:17;;;;;;;0.50;0.50;;;;;;;7.62;100.00;96946.81;29395;233;63009;-54
2024/03/19 01:46:27;;;;;;;0.50;0.50;;;;;;;7.61;100.00;96951.38;29395;271;63009;-67
2024/03/19 01:46:59;;;;;;;0.50;0.50;;;;;;;7.61;100.00;96955.97;29395;251;63017;-66
2024/03/19 01:47:30;;;;;;;0.50;0.50;;;;;;;7.61;100.00;96946.00;29395;198;63004;-67
2024/03/19 01:48:02;;;;;;;0.50;0.50;;;;;;;7.61;100.00;96946.00;29395;232;63008;-68
2024/03/19 01:48:34;;;;;;;0.50;0.50;;;;;;;7.61;100.00;96953.28;29394;235;64009;-67
2024/03/19 01:49:05;;;;;;;0.50;0.50;;;;;;;7.62;100.00;96949.50;29395;209;63009;-67
2024/03/19 01:49:38;;;;;;;0.50;0.50;;;;;;;7.61;100.00;96956.78;29395;271;63001;-55
2024/03/19 01:50:12;;;;;;;0.60;0.60;;;;;;;7.61;100.00;96950.56;29395;205;63009;-66
2024/03/19 01:50:43;;;;;;;0.50;0.50;;;;;;;7.60;100.00;96949.78;29395;270;63005;-54
2024/03/19 01:51:17;;;;;;;0.50;0.50;;;;;;;7.61;100.00;96953.28;29395;197;63009;-67
2024/03/19 01:51:49;;;;;;;0.50;0.50;;;;;;;7.60;100.00;96948.97;29395;262;63005;-67
2024/03/19 01:52:20;;;;;;;0.50;0.50;;;;;;;7.60;100.00;96946.25;29394;248;64013;-55
2024/03/19 01:52:54;;;;;;;0.50;0.50;;;;;;;7.59;100.00;96947.34;29395;207;63004;-66
2024/03/19 01:53:28;;;;;;;0.50;0.50;;;;;;;7.59;100.00;96945.44;29395;280;63014;-54
2024/03/19 01:54:00;;;;;;;0.50;0.50;;;;;;;7.60;100.00;96946.25;29395;240;63004;-55
2024/03/19 01:54:33;;;;;;;0.50;0.50;;;;;;;7.59;100.00;96948.16;29395;235;63009;-67
2024/03/19 01:55:06;;;;;;;0.50;0.50;;;;;;;7.58;100.00;96949.22;29395;222;63004;-55
2024/03/19 01:55:38;;;;;;;0.50;0.50;;;;;;;7.57;100.00;96949.50;29395;226;63008;-56
2024/03/19 01:56:11;;;;;;;0.50;0.50;;;;;;;7.56;100.00;96953.28;29395;200;63005;-68
2024/03/19 01:56:42;;;;;;;0.50;0.50;;;;;;;7.55;100.00;96947.06;29395;197;63009;-55
2024/03/19 01:57:13;;;;;;;0.50;0.50;;;;;;;7.53;100.00;96940.31;29395;209;63005;-55
2024/03/19 01:57:46;;;;;;;0.50;0.50;;;;;;;7.53;100.00;96951.13;29394;236;64013;-67
2024/03/19 01:58:21;;;;;;;0.50;0.50;;;;;;;7.52;100.00;96946.81;29395;210;63005;-55
2024/03/19 01:58:54;;;;;;;0.50;0.50;;;;;;;7.50;100.00;96944.37;29395;250;63009;-68
2024/03/19 01:59:25;;;;;;;0.50;0.50;;;;;;;7.50;100.00;96948.97;29395;265;63005;-67
2024/03/19 01:59:59;;;;;;;0.50;0.50;;;;;;;7.49;100.00;96952.75;29395;208;63009;-54
2024/03/19 02:00:31;;;;;;;0.50;0.50;;;;;;;7.47;100.00;96946.81;29395;239;63004;-55
2024/03/19 02:01:03;;;;;;;0.50;0.50;;;;;;;7.45;100.00;96947.06;29395;204;63009;-55
2024/03/19 02:01:35;;;;;;;0.50;0.50;;;;;;;7.44;100.00;96952.75;29395;229;63004;-66
2024/03/19 02:02:08;;;;;;;0.50;0.50;;;;;;;7.42;100.00;96947.59;29395;197;63009;-55
2024/03/19 02:02:39;;;;;;;0.50;0.50;;;;;;;7.40;100.00;96955.97;29395;258;63004;-55
2024/03/19 02:03:13;;;;;;;0.60;0.60;;;;;;;7.39;100.00;96954.34;29394;196;64013;-54
2024/03/19 02:03:45;;;;;;;0.50;0.50;;;;;;;7.37;100.00;96951.13;29395;197;63005;-55
2024/03/19 02:04:18;;;;;;;0.50;0.50;;;;;;;7.37;100.00;96953.00;29395;218;63005;-66
2024/03/19 02:04:50;;;;;;;0.50;0.50;;;;;;;7.37;100.00;96955.72;29395;275;63005;-67
2024/03/19 02:05:22;;;;;;;0.50;0.50;;;;;;;7.35;100.00;96955.97;29395;254;63022;-68
2024/03/19 02:05:54;;;;;;;0.50;0.50;;;;;;;7.34;100.00;96951.66;29395;212;63005;-55
2024/03/19 02:06:28;;;;;;;0.50;0.50;;;;;;;7.27;100.00;96956.53;29395;225;63005;-68
2024/03/19 02:06:59;;;;;;;0.50;0.50;;;;;;;7.22;100.00;96956.53;29395;244;63007;-55
2024/03/19 02:07:33;;;;;;;0.50;0.50;;;;;;;7.16;100.00;96954.91;29395;244;63009;-67
2024/03/19 02:08:05;;;;;;;0.50;0.50;;;;;;;7.12;100.00;96953.81;29395;258;63004;-67
2024/03/19 02:08:37;;;;;;;0.50;0.50;;;;;;;7.11;100.00;96952.22;29394;210;64013;-67
2024/03/19 02:09:12;;;;;;;0.50;0.50;;;;;;;7.11;100.00;96952.22;29395;270;63004;-55
2024/03/19 02:09:44;;;;;;;0.50;0.50;;;;;;;7.12;100.00;96950.31;29395;210;63008;-67
2024/03/19 02:10:15;;;;;;;0.50;0.50;;;;;;;7.12;100.00;96953.00;29395;223;63004;-55
2024/03/19 02:10:48;;;;;;;0.50;0.50;;;;;;;7.11;100.00;96952.22;29395;230;63008;-66
2024/03/19 02:11:21;;;;;;;0.50;0.50;;;;;;;7.11;100.00;96948.69;29395;198;63005;-66
2024/03/19 02:11:54;;;;;;;0.50;0.50;;;;;;;7.12;100.00;96953.81;29395;221;63009;-55
2024/03/19 02:12:28;;;;;;;0.50;0.50;;;;;;;7.13;100.00;96955.44;29395;199;63005;-56
2024/03/19 02:13:00;;;;;;;0.50;0.50;;;;;;;7.13;100.00;96955.44;29395;222;63009;-55
2024/03/19 02:13:31;;;;;;;0.50;0.50;;;;;;;7.13;100.00;96950.03;29395;224;63005;-55
2024/03/19 02:14:04;;;;;;;0.50;0.50;;;;;;;7.12;100.00;96948.44;29394;230;64013;-55
2024/03/19 02:14:35;;;;;;;0.50;0.50;;;;;;;7.13;100.00;96950.03;29395;212;63004;-66
2024/03/19 02:15:08;;;;;;;0.50;0.50;;;;;;;7.13;100.00;96950.03;29395;213;63016;-67
2024/03/19 02:15:39;;;;;;;0.50;0.50;;;;;;;7.15;100.00;96952.47;29395;211;63004;-55
2024/03/19 02:16:10;;;;;;;0.50;0.50;;;;;;;7.15;100.00;96950.59;29395;256;63009;-55
2024/03/19 02:16:42;;;;;;;0.50;0.50;;;;;;;7.15;100.00;96953.28;29395;228;63004;-66
2024/03/19 02:17:13;;;;;;;0.60;0.60;;;;;;;7.15;100.00;96953.28;29395;222;63008;-67
2024/03/19 02:17:44;;;;;;;0.50;0.50;;;;;;;7.16;100.00;96943.31;29395;198;63008;-67
2024/03/19 02:18:16;;;;;;;0.50;0.50;;;;;;;7.16;100.00;96946.81;29395;202;63009;-67
2024/03/19 02:18:59;;;;;;;0.50;0.50;;;;;;;7.17;100.00;96948.44;29395;251;63005;-55
2024/03/19 02:19:34;;;;;;;0.50;0.50;;;;;;;7.18;100.00;96949.25;29394;214;64013;-67
2024/03/19 02:20:12;;;;;;;0.50;0.50;;;;;;;7.16;100.00;96944.13;29395;236;63016;-55
2024/03/19 02:20:43;;;;;;;0.50;0.50;;;;;;;7.18;100.00;96946.53;29395;206;63009;-68
2024/03/19 02:21:15;;;;;;;0.50;0.50;;;;;;;7.17;100.00;96944.94;29395;203;63005;-54
2024/03/19 02:21:46;;;;;;;0.50;0.50;;;;;;;7.16;100.00;96944.13;29395;218;63009;-55
2024/03/19 02:22:19;;;;;;;0.52;0.52;;;;;;;7.16;100.00;96944.13;29395;204;63004;-55
2024/03/19 02:22:52;;;;;;;0.50;0.50;;;;;;;7.18;100.00;96947.34;29395;267;63004;-55
2024/03/19 02:23:23;;;;;;;0.50;0.50;;;;;;;7.16;100.00;96944.13;29395;216;63004;-55
2024/03/19 02:24:02;;;;;;;0.50;0.50;;;;;;;7.17;100.00;96940.34;29395;247;63009;-67
2024/03/19 02:24:33;;;;;;;0.50;0.50;;;;;;;7.18;100.00;96941.16;29394;202;64008;-68
2024/03/19 02:25:06;;;;;;;0.50;0.50;;;;;;;7.17;100.00;96951.13;29394;221;64008;-55
2024/03/19 02:25:38;;;;;;;0.50;0.50;;;;;;;7.17;100.00;96945.72;29395;223;63005;-67
2024/03/19 02:26:09;;;;;;;0.50;0.50;;;;;;;7.17;100.00;96943.03;29395;268;63009;-68
2024/03/19 02:26:42;;;;;;;0.50;0.50;;;;;;;7.17;100.00;96940.34;29395;274;63008;-55
2024/03/19 02:27:13;;;;;;;0.50;0.50;;;;;;;7.18;100.00;96941.97;29395;217;63009;-55
2024/03/19 02:27:46;;;;;;;0.50;0.50;;;;;;;7.18;100.00;96949.25;29395;254;63005;-68
2024/03/19 02:28:20;;;;;;;0.50;0.50;;;;;;;7.18;100.00;96941.16;29395;210;63009;-67
2024/03/19 02:28:52;;;;;;;0.50;0.50;;;;;;;7.17;100.00;96951.13;29395;207;63005;-55
2024/03/19 02:29:23;;;;;;;0.50;0.50;;;;;;;7.17;100.00;96944.94;29395;263;63009;-55
2024/03/19 02:29:54;;;;;;;0.50;0.50;;;;;;;7.16;100.00;96944.13;29394;216;64009;-55
2024/03/19 02:30:25;;;;;;;0.50;0.50;;;;;;;7.17;100.00;96951.13;29395;248;63009;-67
2024/03/19 02:30:57;;;;;;;0.50;0.50;;;;;;;7.16;100.00;96943.31;29395;205;63004;-55
2024/03/19 02:31:29;;;;;;;0.50;0.50;;;;;;;7.17;100.00;96940.34;29395;223;63009;-66
2024/03/19 02:32:00;;;;;;;0.50;0.50;;;;;;;7.15;100.00;96942.50;29395;226;63004;-55
2024/03/19 02:32:31;;;;;;;0.50;0.50;;;;;;;7.15;100.00;96945.19;29395;287;63025;-67
2024/03/19 02:33:04;;;;;;;0.60;0.60;;;;;;;7.15;100.00;96944.37;29395;261;63005;-55
2024/03/19 02:33:35;;;;;;;0.50;0.50;;;;;;;7.15;100.00;96939.78;29395;259;63009;-55
2024/03/19 02:34:06;;;;;;;0.50;0.50;;;;;;;7.14;100.00;96946.28;29395;232;63005;-68